Time;durP1;ratioP1;P1;durP2;ratioP2;P2;SDS_P1;SDS_P2;PMS_P1;PMS_P2;Temp;Humidity;BMP_temperature;BMP_pressure;BME280_temperature;BME280_humidity;BME280_pressure;Samples;Min_cycle;Max_cycle;Signal;HPM_P1;HPM_P2
2022/01/13 00:02:29;;;;;;;12.97;6.77;;;;;;;;;;5068967;28;21053;-78
2022/01/13 00:04:55;;;;;;;13.90;6.67;;;;;;;;;;5061403;28;20424;-77
2022/01/13 00:07:21;;;;;;;16.70;6.77;;;;;;;;;;5065519;28;20447;-77
2022/01/13 00:09:47;;;;;;;11.30;6.63;;;;;;;;;;5065517;28;20501;-78
2022/01/13 00:12:16;;;;;;;11.97;6.23;;;;;;;;;;5071772;28;21272;-77
2022/01/13 00:15:06;;;;;;;12.73;6.17;;;;;;;;;;5066429;28;20420;-78
2022/01/13 00:17:43;;;;;;;13.70;6.27;;;;;;;;;;5064367;28;20406;-77
2022/01/13 00:23:44;;;;;;;14.60;5.97;;;;;;;;;;5065898;28;20421;-78
2022/01/13 00:25:42;;;;;;;9.47;5.03;;;;;;;;;;5059473;28;20419;-77
2022/01/13 00:28:20;;;;;;;11.47;5.13;;;;;;;;;;5070177;28;20563;-77
2022/01/13 00:30:51;;;;;;;10.43;5.40;;;;;;;;;;5072446;28;20400;-77
2022/01/13 00:33:23;;;;;;;9.57;5.50;;;;;;;;;;5072092;28;20473;-77
2022/01/13 00:35:49;;;;;;;9.67;5.47;;;;;;;;;;5068685;28;21157;-77
2022/01/13 00:38:15;;;;;;;11.13;5.90;;;;;;;;;;5071015;28;20432;-78
2022/01/13 00:40:41;;;;;;;13.90;5.87;;;;;;;;;;5068455;28;20414;-77
2022/01/13 00:43:07;;;;;;;8.63;5.27;;;;;;;;;;5066831;28;20457;-78
2022/01/13 00:45:33;;;;;;;8.93;5.30;;;;;;;;;;5070538;28;20417;-77
2022/01/13 00:47:59;;;;;;;9.07;4.80;;;;;;;;;;5071431;28;20445;-78
2022/01/13 00:50:25;;;;;;;10.73;5.43;;;;;;;;;;5071859;28;20411;-77
2022/01/13 00:52:51;;;;;;;9.70;5.33;;;;;;;;;;5071952;28;20432;-77
2022/01/13 00:55:21;;;;;;;11.07;5.00;;;;;;;;;;5070623;28;20439;-77
2022/01/13 00:57:48;;;;;;;8.57;5.07;;;;;;;;;;5066752;28;20910;-77
2022/01/13 01:00:15;;;;;;;12.17;5.53;;;;;;;;;;5070673;28;20420;-78
2022/01/13 01:02:41;;;;;;;10.37;5.30;;;;;;;;;;5069474;28;20426;-78
2022/01/13 01:05:07;;;;;;;9.57;5.80;;;;;;;;;;5071409;28;20505;-78
2022/01/13 01:07:35;;;;;;;11.97;5.47;;;;;;;;;;5066723;28;20453;-77
2022/01/13 01:10:02;;;;;;;8.07;5.17;;;;;;;;;;5069912;28;20428;-77
2022/01/13 01:12:31;;;;;;;15.50;5.80;;;;;;;;;;5069407;28;20417;-78
2022/01/13 01:14:58;;;;;;;9.60;4.83;;;;;;;;;;5071980;28;20461;-78
2022/01/13 01:17:24;;;;;;;11.07;5.40;;;;;;;;;;5067693;28;20425;-77
2022/01/13 01:19:51;;;;;;;11.87;5.53;;;;;;;;;;5069956;28;20436;-78
2022/01/13 01:27:34;;;;;;;12.37;5.57;;;;;;;;;;5067281;28;20491;-77
2022/01/13 01:30:09;;;;;;;9.13;5.70;;;;;;;;;;5063343;28;20479;-78
2022/01/13 01:32:37;;;;;;;10.50;5.40;;;;;;;;;;5065203;28;20714;-77
2022/01/13 01:35:12;;;;;;;9.27;4.97;;;;;;;;;;5070661;28;20443;-78
2022/01/13 01:37:39;;;;;;;10.47;5.10;;;;;;;;;;5071070;28;20435;-78
2022/01/13 01:40:05;;;;;;;9.83;5.10;;;;;;;;;;5068109;28;20999;-78
2022/01/13 01:42:32;;;;;;;12.97;5.27;;;;;;;;;;5065449;28;20424;-78
2022/01/13 01:44:59;;;;;;;9.47;5.37;;;;;;;;;;5068302;28;21209;-78
2022/01/13 01:47:27;;;;;;;11.67;5.83;;;;;;;;;;5070761;28;20471;-78
2022/01/13 01:49:56;;;;;;;12.53;5.80;;;;;;;;;;5068676;28;20441;-78
2022/01/13 01:52:23;;;;;;;9.57;5.30;;;;;;;;;;5069076;28;20501;-77
2022/01/13 01:54:50;;;;;;;10.10;5.40;;;;;;;;;;5069646;28;20416;-77
2022/01/13 01:57:17;;;;;;;13.20;5.67;;;;;;;;;;5071162;28;20429;-77
2022/01/13 01:59:44;;;;;;;11.13;5.60;;;;;;;;;;5065638;28;20501;-77
2022/01/13 02:02:14;;;;;;;13.33;5.77;;;;;;;;;;5065862;28;20416;-76
2022/01/13 02:04:41;;;;;;;13.40;5.73;;;;;;;;;;5069735;28;20449;-76
2022/01/13 02:07:08;;;;;;;13.23;6.07;;;;;;;;;;5069369;28;20533;-76
2022/01/13 02:09:41;;;;;;;14.83;6.60;;;;;;;;;;5067928;28;20421;-76
2022/01/13 02:12:10;;;;;;;11.17;5.43;;;;;;;;;;5068234;28;21598;-76
2022/01/13 02:14:50;;;;;;;13.17;5.97;;;;;;;;;;5068715;28;20413;-76
2022/01/13 02:17:23;;;;;;;9.80;5.53;;;;;;;;;;5066513;28;21202;-76
2022/01/13 02:19:51;;;;;;;10.67;5.50;;;;;;;;;;5068012;28;20405;-76
2022/01/13 02:22:17;;;;;;;9.33;5.63;;;;;;;;;;5064961;28;20471;-76
2022/01/13 02:24:43;;;;;;;11.20;5.80;;;;;;;;;;5064971;28;20448;-76
2022/01/13 02:27:09;;;;;;;12.17;6.30;;;;;;;;;;5069376;28;20449;-76
2022/01/13 02:29:36;;;;;;;9.53;5.10;;;;;;;;;;5067014;28;20430;-76
2022/01/13 02:32:03;;;;;;;8.87;5.43;;;;;;;;;;5063658;28;21090;-76
2022/01/13 02:34:29;;;;;;;11.43;5.63;;;;;;;;;;5065447;28;20431;-76
2022/01/13 02:36:56;;;;;;;12.30;6.00;;;;;;;;;;5064961;28;20433;-76
2022/01/13 02:39:23;;;;;;;10.70;5.40;;;;;;;;;;5068433;28;21186;-76
2022/01/13 02:41:49;;;;;;;10.90;5.50;;;;;;;;;;5065410;28;20416;-76
2022/01/13 02:44:19;;;;;;;9.90;6.07;;;;;;;;;;5064674;28;20439;-76
2022/01/13 02:49:15;;;;;;;11.33;5.73;;;;;;;;;;5068813;28;20432;-76
2022/01/13 02:51:42;;;;;;;11.93;5.40;;;;;;;;;;5067470;28;20424;-76
2022/01/13 02:54:09;;;;;;;11.57;6.20;;;;;;;;;;5070692;28;20428;-76
2022/01/13 02:56:36;;;;;;;13.57;6.13;;;;;;;;;;5068461;28;20449;-76
2022/01/13 02:59:02;;;;;;;9.93;5.80;;;;;;;;;;5065351;28;20488;-76
2022/01/13 03:01:28;;;;;;;10.80;5.83;;;;;;;;;;5066968;28;20943;-76
2022/01/13 03:03:54;;;;;;;12.63;5.97;;;;;;;;;;5067647;28;20965;-76
2022/01/13 03:06:24;;;;;;;13.90;6.80;;;;;;;;;;5069107;28;20425;-76
2022/01/13 03:08:51;;;;;;;15.27;9.30;;;;;;;;;;5066050;28;20445;-76
2022/01/13 03:11:18;;;;;;;22.57;13.43;;;;;;;;;;5061954;28;20509;-76
2022/01/13 03:13:44;;;;;;;16.97;11.60;;;;;;;;;;5067807;28;20409;-76
2022/01/13 03:16:11;;;;;;;44.97;27.47;;;;;;;;;;5063812;28;20402;-76
2022/01/13 03:18:38;;;;;;;26.30;18.17;;;;;;;;;;5065837;28;21674;-76
2022/01/13 03:21:05;;;;;;;38.63;24.40;;;;;;;;;;5065633;28;20416;-76
2022/01/13 03:23:31;;;;;;;44.40;26.67;;;;;;;;;;5066458;28;20412;-76
2022/01/13 03:25:57;;;;;;;37.30;25.17;;;;;;;;;;5065506;28;21366;-77
2022/01/13 03:28:39;;;;;;;40.97;25.10;;;;;;;;;;5063879;28;20455;-76
2022/01/13 03:31:06;;;;;;;39.80;25.00;;;;;;;;;;5066630;28;20414;-76
2022/01/13 03:33:32;;;;;;;41.33;26.33;;;;;;;;;;5069908;28;21412;-76
2022/01/13 03:36:00;;;;;;;37.07;25.67;;;;;;;;;;5065180;28;20468;-76
2022/01/13 03:38:26;;;;;;;35.17;22.27;;;;;;;;;;5067776;28;20431;-76
2022/01/13 03:40:52;;;;;;;34.77;20.43;;;;;;;;;;5068157;28;21254;-76
2022/01/13 03:43:19;;;;;;;30.07;18.80;;;;;;;;;;5064494;28;20465;-77
2022/01/13 03:45:45;;;;;;;26.43;17.93;;;;;;;;;;5066838;28;20429;-76
2022/01/13 03:48:14;;;;;;;26.65;18.30;;;;;;;;;;5064823;28;20450;-76
2022/01/13 03:50:41;;;;;;;24.15;15.13;;;;;;;;;;5061837;28;20215;-76
2022/01/13 03:53:22;;;;;;;21.63;12.10;;;;;;;;;;5065547;28;20840;-76
2022/01/13 03:56:12;;;;;;;15.97;8.20;;;;;;;;;;5068719;28;21417;-76
2022/01/13 03:59:04;;;;;;;15.35;8.32;;;;;;;;;;5039472;28;20425;-76
2022/01/13 04:01:49;;;;;;;14.68;7.35;;;;;;;;;;5038410;28;20186;-76
2022/01/13 04:04:15;;;;;;;13.10;7.10;;;;;;;;;;5066426;28;20201;-76
2022/01/13 04:06:42;;;;;;;12.37;7.30;;;;;;;;;;5065138;28;20448;-76
2022/01/13 04:09:10;;;;;;;13.07;6.50;;;;;;;;;;5070644;28;21276;-76
2022/01/13 04:11:36;;;;;;;12.20;6.10;;;;;;;;;;5069236;28;20425;-76
2022/01/13 04:14:05;;;;;;;14.65;6.50;;;;;;;;;;5068050;28;20191;-76
2022/01/13 04:16:33;;;;;;;16.83;7.30;;;;;;;;;;5070126;28;20229;-76
2022/01/13 04:19:04;;;;;;;14.70;7.03;;;;;;;;;;5066572;28;20440;-76
2022/01/13 04:21:31;;;;;;;12.73;6.93;;;;;;;;;;5069722;28;20428;-76
2022/01/13 04:23:57;;;;;;;13.40;7.03;;;;;;;;;;5070954;28;20428;-76
2022/01/13 04:26:31;;;;;;;14.85;6.95;;;;;;;;;;5068197;28;20425;-76
2022/01/13 04:31:36;;;;;;;13.45;7.03;;;;;;;;;;5071744;28;20201;-76
2022/01/13 04:34:02;;;;;;;17.05;7.30;;;;;;;;;;5067259;28;20206;-76
2022/01/13 04:36:29;;;;;;;14.10;7.43;;;;;;;;;;5064098;28;20244;-76
2022/01/13 04:38:55;;;;;;;17.58;7.80;;;;;;;;;;5069150;28;20183;-76
2022/01/13 04:41:31;;;;;;;14.32;7.55;;;;;;;;;;5068858;28;20216;-76
2022/01/13 04:43:57;;;;;;;19.30;7.30;;;;;;;;;;5065421;28;20183;-76
2022/01/13 04:46:23;;;;;;;15.73;7.35;;;;;;;;;;5065465;28;20172;-76
2022/01/13 04:48:50;;;;;;;16.85;8.35;;;;;;;;;;5063569;28;21079;-76
2022/01/13 04:51:16;;;;;;;13.85;8.00;;;;;;;;;;5067554;28;20182;-76
2022/01/13 04:53:42;;;;;;;18.57;8.30;;;;;;;;;;5069045;28;20167;-76
2022/01/13 04:56:15;;;;;;;18.20;8.10;;;;;;;;;;5067525;28;21396;-76
2022/01/13 04:58:41;;;;;;;19.73;8.52;;;;;;;;;;5066866;28;21679;-76
2022/01/13 05:01:07;;;;;;;19.13;8.63;;;;;;;;;;5066363;28;20219;-76
2022/01/13 05:03:33;;;;;;;18.85;9.18;;;;;;;;;;5068180;28;21107;-76
2022/01/13 05:05:59;;;;;;;20.98;11.02;;;;;;;;;;5068704;28;20810;-76
2022/01/13 05:08:25;;;;;;;16.88;9.00;;;;;;;;;;5064447;28;20192;-76
2022/01/13 05:10:52;;;;;;;21.02;9.00;;;;;;;;;;5063926;28;20215;-76
2022/01/13 05:13:18;;;;;;;17.20;8.82;;;;;;;;;;5069268;28;20283;-76
2022/01/13 05:15:45;;;;;;;17.33;7.80;;;;;;;;;;5064755;28;20178;-76
2022/01/13 05:21:04;;;;;;;16.92;7.95;;;;;;;;;;5068447;28;20502;-76
2022/01/13 05:23:31;;;;;;;15.98;7.35;;;;;;;;;;5066115;28;20903;-76
2022/01/13 05:25:57;;;;;;;14.07;7.30;;;;;;;;;;5068606;28;20610;-76
2022/01/13 05:28:23;;;;;;;16.42;8.15;;;;;;;;;;5065513;28;21331;-76
2022/01/13 05:30:50;;;;;;;14.48;7.90;;;;;;;;;;5065021;28;20182;-75
2022/01/13 05:33:16;;;;;;;14.95;8.43;;;;;;;;;;5069517;28;20171;-76
2022/01/13 05:35:42;;;;;;;21.30;8.10;;;;;;;;;;5027162;28;1124625;-76
2022/01/13 05:38:09;;;;;;;17.25;8.55;;;;;;;;;;5062152;28;20916;-76
2022/01/13 05:40:36;;;;;;;18.63;7.70;;;;;;;;;;5075889;28;20189;-76
2022/01/13 05:43:02;;;;;;;14.68;8.07;;;;;;;;;;5067590;28;20420;-76
2022/01/13 05:45:29;;;;;;;13.27;7.97;;;;;;;;;;5060870;28;20245;-76
2022/01/13 05:47:57;;;;;;;16.05;7.88;;;;;;;;;;5067402;28;20921;-76
2022/01/13 05:50:23;;;;;;;16.90;8.47;;;;;;;;;;5063878;28;20174;-76
2022/01/13 05:52:49;;;;;;;16.13;9.52;;;;;;;;;;5069019;28;20424;-76
2022/01/13 05:55:16;;;;;;;21.05;9.50;;;;;;;;;;5066208;28;21077;-76
2022/01/13 05:57:42;;;;;;;20.30;9.10;;;;;;;;;;5065507;28;20484;-76
2022/01/13 06:00:10;;;;;;;21.70;9.15;;;;;;;;;;5068103;28;21242;-76
2022/01/13 06:02:36;;;;;;;16.55;9.13;;;;;;;;;;5070110;28;20183;-75
2022/01/13 06:05:02;;;;;;;17.58;9.27;;;;;;;;;;5067427;28;20988;-76
2022/01/13 06:07:28;;;;;;;21.85;9.55;;;;;;;;;;5063572;28;20900;-77
2022/01/13 06:09:54;;;;;;;15.00;8.50;;;;;;;;;;5065251;28;20258;-76
2022/01/13 06:12:31;;;;;;;18.00;8.40;;;;;;;;;;5068639;28;20182;-76
2022/01/13 06:14:57;;;;;;;27.35;9.70;;;;;;;;;;5069259;28;20269;-76
2022/01/13 06:17:23;;;;;;;17.85;8.85;;;;;;;;;;5065326;28;20198;-76
2022/01/13 06:19:49;;;;;;;14.40;7.93;;;;;;;;;;5066114;28;20171;-76
2022/01/13 06:22:15;;;;;;;23.40;9.88;;;;;;;;;;5064626;28;20175;-76
2022/01/13 06:24:41;;;;;;;20.55;10.13;;;;;;;;;;5064013;28;20170;-76
2022/01/13 06:27:07;;;;;;;19.23;9.13;;;;;;;;;;5071604;28;20222;-76
2022/01/13 06:29:34;;;;;;;16.98;9.73;;;;;;;;;;5068364;28;20174;-76
2022/01/13 06:32:00;;;;;;;20.83;10.43;;;;;;;;;;5061864;28;20179;-77
2022/01/13 06:34:26;;;;;;;19.08;10.18;;;;;;;;;;5057920;28;20179;-76
2022/01/13 06:36:52;;;;;;;19.83;8.80;;;;;;;;;;5065903;28;20167;-76
2022/01/13 06:39:18;;;;;;;20.15;8.57;;;;;;;;;;5064346;28;21101;-76
2022/01/13 06:41:44;;;;;;;29.95;10.63;;;;;;;;;;5061957;28;20175;-76
2022/01/13 06:44:10;;;;;;;29.63;10.43;;;;;;;;;;5059199;28;20688;-76
2022/01/13 06:46:36;;;;;;;18.73;9.00;;;;;;;;;;5064062;28;20174;-76
2022/01/13 06:49:03;;;;;;;24.80;9.35;;;;;;;;;;5065028;28;20195;-76
2022/01/13 06:51:29;;;;;;;19.17;9.38;;;;;;;;;;5062527;28;20262;-76
2022/01/13 06:53:55;;;;;;;21.58;9.27;;;;;;;;;;5064461;28;20180;-76
2022/01/13 06:56:24;;;;;;;21.70;9.43;;;;;;;;;;5063189;28;20198;-76
2022/01/13 06:58:50;;;;;;;31.55;9.32;;;;;;;;;;5062498;28;20214;-76
2022/01/13 07:01:17;;;;;;;29.38;9.50;;;;;;;;;;5063428;28;20179;-76
2022/01/13 07:03:43;;;;;;;23.67;9.60;;;;;;;;;;5060821;28;20183;-76
2022/01/13 07:06:09;;;;;;;26.10;8.70;;;;;;;;;;5063158;28;22077;-76
2022/01/13 07:08:36;;;;;;;18.33;8.65;;;;;;;;;;5058485;28;20229;-76
2022/01/13 07:11:04;;;;;;;24.45;9.75;;;;;;;;;;5063877;28;20183;-76
2022/01/13 07:13:30;;;;;;;21.77;9.27;;;;;;;;;;5064148;28;20772;-76
2022/01/13 07:15:58;;;;;;;24.95;10.10;;;;;;;;;;5056478;28;20831;-77
2022/01/13 07:18:24;;;;;;;22.90;9.55;;;;;;;;;;5064156;28;20254;-76
2022/01/13 07:20:50;;;;;;;25.67;9.05;;;;;;;;;;5069276;28;20171;-77
2022/01/13 07:23:16;;;;;;;18.35;8.57;;;;;;;;;;5066230;28;20175;-77
2022/01/13 07:25:42;;;;;;;20.75;8.85;;;;;;;;;;5065966;28;20977;-77
2022/01/13 07:28:10;;;;;;;32.80;9.88;;;;;;;;;;5062305;28;20195;-76
2022/01/13 07:30:36;;;;;;;27.23;12.63;;;;;;;;;;5059414;28;20558;-76
2022/01/13 07:33:02;;;;;;;21.58;11.27;;;;;;;;;;5062146;28;21238;-77
2022/01/13 07:35:29;;;;;;;27.77;13.30;;;;;;;;;;5064301;28;20194;-77
2022/01/13 07:37:55;;;;;;;28.27;10.90;;;;;;;;;;5064370;28;20432;-77
2022/01/13 07:40:21;;;;;;;35.30;11.53;;;;;;;;;;5061472;28;20172;-76
2022/01/13 07:42:48;;;;;;;29.93;11.37;;;;;;;;;;5063852;28;20409;-76
2022/01/13 07:45:15;;;;;;;30.52;10.60;;;;;;;;;;5063032;28;20530;-77
2022/01/13 07:47:41;;;;;;;26.00;11.80;;;;;;;;;;5067832;28;20198;-76
2022/01/13 07:50:08;;;;;;;47.13;13.80;;;;;;;;;;5063643;28;20422;-76
2022/01/13 07:52:34;;;;;;;32.30;11.07;;;;;;;;;;5066762;28;20406;-76
2022/01/13 07:55:00;;;;;;;31.33;11.10;;;;;;;;;;5059585;28;20417;-77
2022/01/13 07:57:26;;;;;;;25.50;10.63;;;;;;;;;;5067591;28;21311;-76
2022/01/13 07:59:52;;;;;;;27.10;10.63;;;;;;;;;;5065165;28;20485;-76
2022/01/13 08:02:19;;;;;;;30.13;12.70;;;;;;;;;;5061286;28;20534;-77
2022/01/13 08:04:45;;;;;;;27.57;11.80;;;;;;;;;;5065499;28;20416;-76
2022/01/13 08:07:12;;;;;;;25.50;9.73;;;;;;;;;;5067543;28;20555;-77
2022/01/13 08:09:41;;;;;;;26.40;9.27;;;;;;;;;;5066257;28;20530;-77
2022/01/13 08:12:07;;;;;;;27.47;9.20;;;;;;;;;;5066249;28;21137;-77
2022/01/13 08:14:33;;;;;;;19.10;8.57;;;;;;;;;;5062390;28;20421;-77
2022/01/13 08:17:02;;;;;;;22.63;9.17;;;;;;;;;;5059675;28;20425;-76
2022/01/13 08:19:46;;;;;;;19.20;8.30;;;;;;;;;;5061809;28;20548;-77
2022/01/13 08:22:20;;;;;;;28.07;9.07;;;;;;;;;;5060837;28;20455;-77
2022/01/13 08:24:46;;;;;;;22.67;8.63;;;;;;;;;;5062695;28;20413;-76
2022/01/13 08:27:12;;;;;;;15.83;7.97;;;;;;;;;;5065029;28;20490;-77
2022/01/13 08:29:38;;;;;;;20.90;8.73;;;;;;;;;;5064837;28;20448;-77
2022/01/13 08:32:04;;;;;;;19.17;8.57;;;;;;;;;;5062596;28;20423;-76
2022/01/13 08:34:30;;;;;;;21.80;8.77;;;;;;;;;;5063983;28;20452;-76
2022/01/13 08:36:56;;;;;;;22.33;8.30;;;;;;;;;;5067040;28;20413;-76
2022/01/13 08:39:25;;;;;;;22.90;8.50;;;;;;;;;;5064567;28;20421;-77
2022/01/13 08:41:52;;;;;;;25.83;8.80;;;;;;;;;;5069720;28;20513;-76
2022/01/13 08:44:18;;;;;;;18.13;8.37;;;;;;;;;;5070621;28;20472;-77
2022/01/13 08:46:44;;;;;;;18.17;8.40;;;;;;;;;;5066190;28;21487;-76
2022/01/13 08:49:10;;;;;;;21.60;8.67;;;;;;;;;;5068329;28;20471;-77
2022/01/13 08:51:37;;;;;;;17.30;8.17;;;;;;;;;;5070266;28;20451;-77
2022/01/13 08:54:03;;;;;;;19.47;8.90;;;;;;;;;;5066769;28;21167;-77
2022/01/13 08:56:29;;;;;;;21.37;9.67;;;;;;;;;;5069048;28;20533;-77
2022/01/13 08:58:55;;;;;;;17.00;9.47;;;;;;;;;;5067537;28;20423;-77
2022/01/13 09:01:22;;;;;;;21.07;9.33;;;;;;;;;;5065518;28;20404;-77
2022/01/13 09:03:48;;;;;;;21.67;9.70;;;;;;;;;;5065423;28;21145;-77
2022/01/13 09:06:14;;;;;;;20.87;9.07;;;;;;;;;;5068358;28;21486;-77
2022/01/13 09:08:41;;;;;;;19.70;9.93;;;;;;;;;;5070895;28;20819;-77
2022/01/13 09:11:07;;;;;;;25.03;10.07;;;;;;;;;;5068680;28;20417;-77
2022/01/13 09:13:37;;;;;;;19.00;9.30;;;;;;;;;;5068780;28;20487;-77
2022/01/13 09:16:04;;;;;;;19.60;9.60;;;;;;;;;;5070184;28;21228;-77
2022/01/13 09:18:48;;;;;;;24.87;10.20;;;;;;;;;;5067385;28;20487;-77
2022/01/13 09:21:14;;;;;;;21.60;10.47;;;;;;;;;;5063555;28;20445;-77
2022/01/13 09:23:41;;;;;;;21.47;9.40;;;;;;;;;;5066271;28;20433;-77
2022/01/13 09:26:07;;;;;;;21.23;10.17;;;;;;;;;;5061287;28;21254;-77
2022/01/13 09:28:34;;;;;;;25.43;10.90;;;;;;;;;;5062063;28;20452;-77
2022/01/13 09:31:00;;;;;;;23.57;11.27;;;;;;;;;;5062505;28;20429;-77
2022/01/13 09:33:26;;;;;;;20.47;10.87;;;;;;;;;;5061937;28;20482;-77
2022/01/13 09:35:53;;;;;;;23.53;12.37;;;;;;;;;;5064067;28;20444;-77
2022/01/13 09:38:19;;;;;;;24.13;12.60;;;;;;;;;;5060845;28;20474;-77
2022/01/13 09:40:46;;;;;;;26.07;12.90;;;;;;;;;;5061842;28;20465;-77
2022/01/13 09:43:13;;;;;;;29.23;13.57;;;;;;;;;;5062951;28;20440;-77
2022/01/13 09:45:40;;;;;;;30.27;14.43;;;;;;;;;;5062161;28;20425;-77
2022/01/13 09:48:06;;;;;;;29.37;15.50;;;;;;;;;;5060615;28;20471;-77
2022/01/13 09:50:32;;;;;;;30.93;16.23;;;;;;;;;;5061497;28;21374;-77
2022/01/13 09:52:59;;;;;;;39.30;19.10;;;;;;;;;;5060729;28;20464;-77
2022/01/13 09:55:25;;;;;;;38.33;19.43;;;;;;;;;;5064758;28;20440;-77
2022/01/13 09:57:52;;;;;;;34.57;20.47;;;;;;;;;;5064273;28;21087;-77
2022/01/13 10:00:21;;;;;;;34.67;21.57;;;;;;;;;;5062263;28;20455;-77
2022/01/13 10:02:50;;;;;;;34.50;20.83;;;;;;;;;;5061515;28;20523;-77
2022/01/13 10:05:17;;;;;;;39.33;21.67;;;;;;;;;;5061312;28;20444;-77
2022/01/13 10:07:43;;;;;;;37.67;22.93;;;;;;;;;;5058164;28;21324;-77
2022/01/13 10:10:15;;;;;;;43.77;24.00;;;;;;;;;;5059132;28;20424;-77
2022/01/13 10:12:44;;;;;;;48.30;25.73;;;;;;;;;;5060518;28;20424;-77
2022/01/13 10:17:58;;;;;;;45.77;25.87;;;;;;;;;;5057302;28;20424;-77
2022/01/13 10:20:24;;;;;;;50.30;25.83;;;;;;;;;;5060678;28;20437;-77
2022/01/13 10:22:51;;;;;;;39.97;25.57;;;;;;;;;;5056464;28;20496;-76
2022/01/13 10:25:34;;;;;;;47.17;26.10;;;;;;;;;;5059615;28;20433;-77
2022/01/13 10:28:20;;;;;;;45.23;26.90;;;;;;;;;;5057693;28;20452;-77
2022/01/13 10:30:56;;;;;;;44.30;25.80;;;;;;;;;;5059212;28;21305;-77
2022/01/13 10:33:23;;;;;;;41.47;26.43;;;;;;;;;;5060556;28;20420;-77
2022/01/13 10:35:50;;;;;;;45.73;27.13;;;;;;;;;;5057653;28;20551;-77
2022/01/13 10:38:17;;;;;;;40.67;25.27;;;;;;;;;;5055924;28;21037;-77
2022/01/13 10:40:47;;;;;;;36.77;24.27;;;;;;;;;;5054698;28;21501;-76
2022/01/13 10:43:15;;;;;;;44.53;23.80;;;;;;;;;;5052843;28;20425;-75
2022/01/13 10:45:44;;;;;;;36.60;22.47;;;;;;;;;;5053022;28;20543;-75
2022/01/13 10:48:12;;;;;;;35.50;20.80;;;;;;;;;;5049586;28;21419;-75
2022/01/13 10:50:52;;;;;;;36.73;21.77;;;;;;;;;;5044198;28;20424;-74
2022/01/13 10:53:22;;;;;;;34.27;20.13;;;;;;;;;;5047479;28;21195;-75
2022/01/13 10:55:59;;;;;;;38.33;20.47;;;;;;;;;;5044192;28;20440;-75
2022/01/13 10:58:26;;;;;;;36.93;21.43;;;;;;;;;;5048433;28;20443;-76
2022/01/13 11:00:53;;;;;;;40.87;24.70;;;;;;;;;;5050860;28;21180;-76
2022/01/13 11:03:20;;;;;;;37.53;20.33;;;;;;;;;;5057935;28;21159;-76
2022/01/13 11:05:57;;;;;;;42.77;24.43;;;;;;;;;;5053480;28;21195;-76
2022/01/13 11:08:30;;;;;;;40.50;24.87;;;;;;;;;;5052003;28;20452;-76
2022/01/13 11:10:57;;;;;;;44.33;24.23;;;;;;;;;;5054010;28;20466;-77
2022/01/13 11:13:26;;;;;;;45.83;26.17;;;;;;;;;;5059038;28;21736;-77
2022/01/13 11:15:55;;;;;;;51.90;25.40;;;;;;;;;;5057989;28;20416;-77
2022/01/13 11:18:24;;;;;;;43.77;23.90;;;;;;;;;;5055319;28;21057;-77
2022/01/13 11:20:51;;;;;;;37.87;24.87;;;;;;;;;;5065196;28;21181;-77
2022/01/13 11:23:17;;;;;;;37.97;24.20;;;;;;;;;;5063496;28;20443;-77
2022/01/13 11:25:45;;;;;;;42.83;24.40;;;;;;;;;;5064533;28;20432;-77
2022/01/13 11:28:11;;;;;;;37.70;22.00;;;;;;;;;;5062050;28;20571;-77
2022/01/13 11:30:37;;;;;;;37.60;23.43;;;;;;;;;;5058730;28;20771;-77
2022/01/13 11:33:03;;;;;;;38.03;24.17;;;;;;;;;;5058767;28;20429;-78
2022/01/13 11:35:31;;;;;;;39.40;23.87;;;;;;;;;;5061395;28;21158;-77
2022/01/13 11:37:58;;;;;;;38.67;24.70;;;;;;;;;;5064033;28;20456;-78
2022/01/13 11:40:27;;;;;;;36.93;23.70;;;;;;;;;;5061914;28;20413;-76
2022/01/13 11:42:53;;;;;;;41.13;24.83;;;;;;;;;;5060243;28;20422;-76
2022/01/13 11:45:20;;;;;;;42.93;26.03;;;;;;;;;;5061925;28;20421;-76
2022/01/13 11:47:47;;;;;;;46.37;26.77;;;;;;;;;;5060631;28;20479;-76
2022/01/13 11:50:30;;;;;;;40.53;24.67;;;;;;;;;;5060814;28;20416;-77
2022/01/13 11:52:57;;;;;;;41.40;25.07;;;;;;;;;;5064154;28;20403;-76
2022/01/13 11:55:27;;;;;;;38.37;25.47;;;;;;;;;;5061446;28;20401;-77
2022/01/13 11:58:11;;;;;;;42.80;24.60;;;;;;;;;;5059567;28;20984;-77
2022/01/13 12:00:37;;;;;;;40.73;25.57;;;;;;;;;;5060012;28;20467;-77
2022/01/13 12:03:21;;;;;;;44.13;25.20;;;;;;;;;;5065257;28;20416;-77
2022/01/13 12:05:48;;;;;;;41.90;24.53;;;;;;;;;;5061922;28;20426;-77
2022/01/13 12:08:32;;;;;;;43.70;26.07;;;;;;;;;;5060901;28;20448;-77
2022/01/13 12:10:59;;;;;;;42.57;26.67;;;;;;;;;;5063154;28;20432;-77
2022/01/13 12:13:37;;;;;;;45.03;27.63;;;;;;;;;;5064484;28;20405;-77
2022/01/13 12:16:04;;;;;;;45.10;27.93;;;;;;;;;;5062133;28;20473;-77
2022/01/13 12:18:49;;;;;;;40.20;25.10;;;;;;;;;;5067299;28;20423;-78
2022/01/13 12:21:25;;;;;;;37.93;23.83;;;;;;;;;;5061736;28;20428;-77
2022/01/13 12:23:52;;;;;;;41.20;23.93;;;;;;;;;;5060851;28;20511;-78
2022/01/13 12:26:33;;;;;;;42.77;26.17;;;;;;;;;;5064164;28;21357;-78
2022/01/13 12:29:29;;;;;;;38.20;24.47;;;;;;;;;;5059985;28;20467;-77
2022/01/13 12:31:55;;;;;;;43.07;25.70;;;;;;;;;;5058266;28;20425;-80
2022/01/13 12:34:43;;;;;;;42.67;25.83;;;;;;;;;;5062179;28;20427;-81
2022/01/13 12:37:43;;;;;;;;;;;;;;;;;;;;;
2022/01/13 12:40:50;;;;;;;39.03;25.37;;;;;;;;;;5062531;28;20424;-82
2022/01/13 12:46:27;;;;;;;39.50;25.43;;;;;;;;;;5065157;28;20507;-81
2022/01/13 12:49:02;;;;;;;45.87;26.23;;;;;;;;;;5063383;28;20494;-81
2022/01/13 12:51:30;;;;;;;43.00;25.07;;;;;;;;;;5059757;28;20428;-81
2022/01/13 12:54:04;;;;;;;39.13;25.57;;;;;;;;;;5063685;28;20433;-81
2022/01/13 12:56:51;;;;;;;39.17;24.97;;;;;;;;;;5064099;28;20431;-82
2022/01/13 12:59:52;;;;;;;39.83;23.87;;;;;;;;;;5064724;28;20420;-82
2022/01/13 13:02:25;;;;;;;39.20;24.03;;;;;;;;;;5030653;28;20428;-82
2022/01/13 13:04:57;;;;;;;34.07;21.93;;;;;;;;;;5064609;28;20417;-82
2022/01/13 13:07:24;;;;;;;35.43;22.57;;;;;;;;;;5062817;28;20487;-82
2022/01/13 13:10:03;;;;;;;37.17;24.40;;;;;;;;;;5059732;28;20416;-82
2022/01/13 13:12:31;;;;;;;41.87;25.67;;;;;;;;;;5058656;28;20448;-82
2022/01/13 13:17:49;;;;;;;40.43;25.50;;;;;;;;;;5063307;28;20413;-81
2022/01/13 13:20:26;;;;;;;42.67;24.97;;;;;;;;;;5069499;28;20428;-81
2022/01/13 13:22:54;;;;;;;36.37;23.13;;;;;;;;;;5072579;28;20422;-82
2022/01/13 13:25:36;;;;;;;35.50;23.60;;;;;;;;;;5068983;28;20409;-81
2022/01/13 13:28:31;;;;;;;;;;;;;;;;;;;;;
2022/01/13 13:31:20;;;;;;;33.13;22.67;;;;;;;;;;5071911;28;20448;-82
2022/01/13 13:33:48;;;;;;;33.07;21.50;;;;;;;;;;5072006;28;20417;-82
2022/01/13 13:36:51;;;;;;;33.10;22.90;;;;;;;;;;5067499;28;20432;-82
2022/01/13 13:39:38;;;;;;;35.90;24.27;;;;;;;;;;5068689;28;20432;-81
2022/01/13 13:42:06;;;;;;;32.37;21.03;;;;;;;;;;5074372;28;20439;-81
2022/01/13 13:44:37;;;;;;;31.93;21.77;;;;;;;;;;5067794;28;20418;-81
2022/01/13 13:47:17;;;;;;;33.23;20.87;;;;;;;;;;5071724;28;20444;-81
2022/01/13 13:49:59;;;;;;;33.13;20.90;;;;;;;;;;5071103;28;20424;-80
2022/01/13 13:52:25;;;;;;;36.10;21.97;;;;;;;;;;5072272;28;20417;-81
2022/01/13 13:54:54;;;;;;;38.93;23.23;;;;;;;;;;5068118;28;21092;-81
2022/01/13 13:57:57;;;;;;;36.33;22.40;;;;;;;;;;5066964;28;20434;-80
2022/01/13 14:00:30;;;;;;;30.57;20.10;;;;;;;;;;5066020;28;20425;-81
2022/01/13 14:03:07;;;;;;;;;;;;;;;;;;;;;
2022/01/13 14:05:38;;;;;;;29.87;18.50;;;;;;;;;;5067090;28;20478;-81
2022/01/13 14:08:08;;;;;;;28.47;18.93;;;;;;;;;;5070311;28;20452;-81
2022/01/13 14:10:34;;;;;;;31.20;20.20;;;;;;;;;;5070086;28;20414;-81
2022/01/13 14:13:05;;;;;;;31.10;19.30;;;;;;;;;;5072836;28;20429;-80
2022/01/13 14:15:39;;;;;;;32.33;20.77;;;;;;;;;;5070357;28;20412;-80
2022/01/13 14:18:08;;;;;;;33.53;21.67;;;;;;;;;;5067764;28;20542;-80
2022/01/13 14:20:59;;;;;;;35.33;22.13;;;;;;;;;;5066968;28;20428;-80
2022/01/13 14:23:26;;;;;;;34.23;22.40;;;;;;;;;;5056313;28;20487;-80
2022/01/13 14:25:54;;;;;;;39.27;23.93;;;;;;;;;;5067274;28;20430;-81
2022/01/13 14:28:20;;;;;;;35.27;24.23;;;;;;;;;;5064030;28;21342;-81
2022/01/13 14:30:47;;;;;;;38.07;24.27;;;;;;;;;;5068444;28;21043;-81
2022/01/13 14:33:19;;;;;;;39.43;23.63;;;;;;;;;;5067203;28;20413;-81
2022/01/13 14:36:05;;;;;;;34.87;22.90;;;;;;;;;;5066233;28;20520;-81
2022/01/13 14:38:36;;;;;;;40.83;24.17;;;;;;;;;;5064884;28;20417;-81
2022/01/13 14:41:02;;;;;;;36.33;23.97;;;;;;;;;;5062846;28;20440;-81
2022/01/13 14:43:29;;;;;;;33.57;22.30;;;;;;;;;;5069356;28;21294;-81
2022/01/13 14:46:07;;;;;;;37.57;23.30;;;;;;;;;;5066091;28;21246;-81
2022/01/13 14:48:34;;;;;;;38.93;23.53;;;;;;;;;;5068286;28;20529;-81
2022/01/13 14:51:07;;;;;;;36.87;22.53;;;;;;;;;;5067941;28;20425;-81
2022/01/13 14:53:34;;;;;;;38.37;23.40;;;;;;;;;;5068156;28;20428;-81
2022/01/13 14:56:01;;;;;;;42.33;23.90;;;;;;;;;;5070817;28;20464;-81
2022/01/13 14:58:27;;;;;;;35.03;23.97;;;;;;;;;;5070096;28;20548;-81
2022/01/13 15:00:55;;;;;;;37.33;24.50;;;;;;;;;;5065012;28;20440;-81
2022/01/13 15:03:25;;;;;;;42.97;26.20;;;;;;;;;;5069370;28;21038;-82
2022/01/13 15:05:51;;;;;;;45.07;26.67;;;;;;;;;;5069960;28;20512;-81